createdAt,value
2018-04-12T06:26:50.980Z,16.70
2018-04-12T06:27:51.590Z,11.90
2018-04-12T06:28:52.213Z,14.30
2018-04-12T06:29:52.793Z,10.90
2018-04-12T06:30:53.370Z,12.50
2018-04-12T06:31:53.942Z,10.80
2018-04-12T06:32:54.501Z,10.50
2018-04-12T06:33:55.153Z,10.50
2018-04-12T06:34:55.697Z,10.50
2018-04-12T06:36:56.558Z,9.20
2018-04-12T06:37:57.181Z,9.00
2018-04-12T06:44:47.547Z,12.00
2018-04-12T06:45:48.208Z,8.50
2018-04-12T06:46:48.848Z,8.50
2018-04-12T06:47:49.489Z,9.00
2018-04-12T06:48:50.661Z,8.30
2018-04-12T06:49:51.242Z,8.70
2018-04-12T06:50:51.834Z,8.30
2018-04-12T06:52:34.334Z,12.00
2018-04-12T06:53:34.996Z,9.20
2018-04-12T06:54:35.691Z,11.00
2018-04-12T06:55:36.362Z,8.60
2018-04-12T06:56:36.984Z,8.80
2018-04-12T06:57:37.634Z,8.80
2018-04-12T06:58:38.248Z,9.30
2018-04-12T06:59:38.937Z,9.00
2018-04-12T07:00:39.557Z,8.20
2018-04-12T07:01:40.143Z,7.90
2018-04-12T07:02:40.733Z,7.20
2018-04-12T07:03:41.332Z,7.70
2018-04-12T07:04:41.939Z,7.90
2018-04-12T07:06:42.854Z,9.70
2018-04-12T07:08:43.921Z,8.20
2018-04-12T07:09:44.518Z,7.50
2018-04-12T07:10:45.180Z,8.40
2018-04-12T07:11:45.754Z,6.70
2018-04-12T07:12:46.355Z,9.10
2018-04-12T07:13:46.975Z,8.20
2018-04-12T07:14:47.633Z,9.60
2018-04-12T07:15:48.326Z,10.20
2018-04-12T07:16:49.070Z,8.40
2018-04-12T07:17:49.822Z,7.20
2018-04-12T07:18:50.875Z,8.50
2018-04-12T07:19:52.900Z,8.30
2018-04-12T07:20:53.623Z,6.80
2018-04-12T07:21:54.522Z,7.50
2018-04-12T07:22:55.171Z,7.30
2018-04-12T07:23:56.234Z,8.60
2018-04-12T07:24:56.824Z,7.60
2018-04-12T07:25:57.463Z,7.20
2018-04-12T07:26:58.326Z,7.40
2018-04-12T07:27:58.940Z,7.70
2018-04-12T07:28:59.528Z,8.20
2018-04-12T07:30:00.106Z,6.50
2018-04-12T07:31:00.726Z,6.60
2018-04-12T07:32:01.325Z,7.00
2018-04-12T07:33:01.896Z,7.30
2018-04-12T07:34:02.753Z,8.10
2018-04-12T07:35:03.392Z,7.00
2018-04-12T07:36:04.026Z,7.10
2018-04-12T07:37:04.599Z,6.60
2018-04-12T07:38:05.229Z,10.90
2018-04-12T07:39:05.827Z,7.30
2018-04-12T07:40:06.479Z,6.50
2018-04-12T07:41:07.063Z,6.50
2018-04-12T07:42:07.659Z,7.60
2018-04-12T07:43:08.233Z,7.80
2018-04-12T07:44:08.834Z,7.20
2018-04-12T07:45:09.420Z,8.70
2018-04-12T07:46:09.971Z,8.10
2018-04-12T07:47:10.565Z,7.40
2018-04-12T07:48:11.190Z,7.00
2018-04-12T07:49:11.821Z,8.00
2018-04-12T07:50:12.415Z,8.90
2018-04-12T07:51:12.996Z,6.50
2018-04-12T07:52:13.582Z,7.30
2018-04-12T07:53:14.189Z,8.00
2018-04-12T07:54:14.779Z,5.90
2018-04-12T07:55:15.396Z,9.60
2018-04-12T07:56:15.974Z,7.90
2018-04-12T07:57:16.695Z,6.00
2018-04-12T07:58:17.318Z,11.00
2018-04-12T07:59:17.929Z,9.20
2018-04-12T08:00:18.528Z,8.30
2018-04-12T08:02:19.396Z,8.80
2018-04-12T08:03:19.956Z,9.80
2018-04-12T08:04:20.543Z,8.50
2018-04-12T08:05:21.121Z,7.80
2018-04-12T08:06:21.743Z,10.20
2018-04-12T08:07:22.313Z,10.70
2018-04-12T08:08:22.903Z,10.10
2018-04-12T08:09:23.484Z,7.00
2018-04-12T08:10:24.071Z,8.60
2018-04-12T08:12:24.957Z,11.10
2018-04-12T08:13:25.542Z,7.00
2018-04-12T08:14:26.146Z,7.10
2018-04-12T08:15:26.769Z,8.50
2018-04-12T08:17:27.806Z,8.70
2018-04-12T08:18:28.456Z,8.30
2018-04-12T08:20:29.342Z,8.50
2018-04-12T08:21:29.915Z,10.20
2018-04-12T08:23:31.124Z,9.40
2018-04-12T08:24:31.696Z,6.60
2018-04-12T08:38:53.686Z,5.90
2018-04-12T08:39:54.303Z,9.10
2018-04-12T08:40:54.905Z,8.80
2018-04-12T08:41:55.494Z,7.20
2018-04-12T08:42:56.079Z,7.90
2018-04-12T08:43:56.644Z,6.70
2018-04-12T09:04:00.536Z,6.10
2018-04-12T09:05:01.123Z,7.30
2018-04-12T09:06:01.748Z,5.80
2018-04-12T09:07:02.342Z,4.70
2018-04-12T09:08:03.035Z,4.70
2018-04-12T09:09:03.638Z,7.50
2018-04-12T09:22:48.479Z,5.40
2018-04-12T09:23:49.065Z,5.30
2018-04-12T09:24:49.646Z,5.60
2018-04-12T09:25:50.286Z,6.30
2018-04-12T09:26:50.854Z,4.60
2018-04-12T09:27:51.441Z,4.30
2018-04-12T09:29:52.272Z,6.00
2018-04-12T09:30:52.906Z,6.80
2018-04-12T09:32:54.445Z,4.70
2018-04-12T09:33:55.019Z,5.40
2018-04-12T09:34:55.578Z,3.30
2018-04-12T09:35:56.216Z,4.40
2018-04-12T09:36:56.834Z,3.70
2018-04-12T09:37:57.392Z,3.70
2018-04-12T09:39:58.215Z,5.50
2018-04-12T09:40:58.843Z,4.40
2018-04-12T09:41:59.418Z,3.70
2018-04-12T09:43:00.021Z,3.20
2018-04-12T09:44:00.615Z,6.90
2018-04-12T09:45:01.202Z,2.80
2018-04-12T09:46:01.937Z,3.60
2018-04-12T09:48:02.829Z,3.50
2018-04-12T09:49:03.496Z,4.60
2018-04-12T09:50:04.057Z,2.70
2018-04-12T09:51:04.658Z,2.50
2018-04-12T09:52:05.267Z,2.20
2018-04-12T09:53:05.854Z,3.30
2018-04-12T09:54:06.525Z,4.80
2018-04-12T09:55:07.109Z,2.30
2018-04-12T09:56:07.683Z,2.80
2018-04-12T09:57:08.254Z,2.20
2018-04-12T09:58:08.815Z,2.20
2018-04-12T09:59:09.383Z,2.90
2018-04-12T10:00:10.001Z,2.60
2018-04-12T10:01:10.681Z,3.60
2018-04-12T10:03:11.516Z,4.40
2018-04-12T10:04:12.075Z,2.30
2018-04-12T10:05:12.642Z,2.30
2018-04-12T10:06:13.256Z,3.10
2018-04-12T10:07:14.596Z,2.20
2018-04-12T10:08:15.184Z,3.50
2018-04-12T10:09:15.770Z,2.60
2018-04-12T10:10:16.356Z,4.40
2018-04-12T10:11:17.005Z,2.80
2018-04-12T10:12:17.585Z,2.90
2018-04-12T10:13:18.177Z,2.80
2018-04-12T10:14:18.757Z,3.40
2018-04-12T10:15:19.362Z,2.00
2018-04-12T10:17:22.840Z,8.50
2018-04-12T10:18:23.436Z,2.50
2018-04-12T10:19:24.015Z,3.00
2018-04-12T10:22:32.340Z,1.80
2018-04-12T10:23:32.915Z,2.80
2018-04-12T10:24:33.507Z,1.70
2018-04-12T10:25:34.127Z,2.80
2018-04-12T10:26:34.762Z,2.20
2018-04-12T10:27:35.351Z,3.50
2018-04-12T10:28:36.098Z,3.50
2018-04-12T10:29:37.632Z,3.70
2018-04-12T10:30:38.209Z,2.10
2018-04-12T10:31:38.817Z,2.00
2018-04-12T10:32:39.402Z,2.10
2018-04-12T10:33:40.018Z,2.70
2018-04-12T10:34:40.620Z,1.70
2018-04-12T10:35:41.213Z,1.60
2018-04-12T10:36:41.794Z,1.80
2018-04-12T10:57:28.503Z,5.50
2018-04-12T10:58:27.690Z,9.80
2018-04-12T10:59:28.317Z,3.30
2018-04-12T11:00:28.926Z,2.40
2018-04-12T11:01:29.477Z,2.90
2018-04-12T11:02:30.073Z,2.00
2018-04-12T11:03:50.670Z,1.60
2018-04-12T11:04:51.256Z,2.80
2018-04-12T11:05:51.834Z,1.40
2018-04-12T11:06:52.395Z,1.80
2018-04-12T11:07:52.985Z,1.20
2018-04-12T11:08:53.577Z,1.40
2018-04-12T11:09:54.152Z,1.90
2018-04-12T11:10:54.771Z,1.10
2018-04-12T11:11:56.089Z,1.20
2018-04-12T11:12:56.686Z,1.60
2018-04-12T11:13:57.265Z,1.60
2018-04-12T11:14:57.828Z,2.60
2018-04-12T11:15:58.412Z,2.30
2018-04-12T11:16:58.984Z,1.30
2018-04-12T11:17:59.589Z,1.90
2018-04-12T11:19:00.199Z,1.30
2018-04-12T11:20:00.833Z,1.20
2018-04-12T11:21:01.496Z,2.10
2018-04-12T11:22:02.058Z,1.30
2018-04-12T11:24:02.934Z,2.60
2018-04-12T11:25:03.496Z,2.10
2018-04-12T11:26:04.100Z,2.10
2018-04-12T11:27:05.202Z,1.30
2018-04-12T11:28:05.824Z,1.70
2018-04-12T11:29:06.388Z,1.50
2018-04-12T11:30:07.039Z,1.90
2018-04-12T11:31:07.645Z,1.40
2018-04-12T11:32:08.272Z,1.60
2018-04-12T11:33:08.869Z,1.00
2018-04-12T11:34:09.516Z,2.10
2018-04-12T11:35:10.156Z,1.20
2018-04-12T11:36:10.899Z,1.20
2018-04-12T11:37:11.491Z,2.60
2018-04-12T11:38:12.080Z,1.20
2018-04-12T11:39:12.662Z,0.90
2018-04-12T11:40:13.239Z,1.00
2018-04-12T11:41:13.815Z,1.70
2018-04-12T11:42:14.416Z,1.40
2018-04-12T11:43:14.994Z,2.10
2018-04-12T11:45:15.831Z,0.80
2018-04-12T11:46:16.399Z,1.70
2018-04-12T11:47:17.580Z,2.40
2018-04-12T11:48:18.158Z,1.00
2018-04-12T11:49:18.733Z,2.00
2018-04-12T11:50:19.293Z,0.90
2018-04-12T11:51:19.912Z,0.90
2018-04-12T11:52:20.490Z,1.00
2018-04-12T11:53:21.062Z,1.20
2018-04-12T11:55:21.912Z,1.10
2018-04-12T11:56:22.498Z,1.10
2018-04-12T11:57:23.087Z,0.80
2018-04-12T11:58:23.672Z,1.70
2018-04-12T12:00:24.599Z,0.90
2018-04-12T12:01:25.274Z,2.00
2018-04-12T12:02:25.842Z,1.00
2018-04-12T12:03:26.431Z,2.90
2018-04-12T12:04:27.039Z,3.40
2018-04-12T12:05:27.729Z,2.60
2018-04-12T12:06:28.381Z,2.90
2018-04-12T12:08:29.218Z,0.80
2018-04-12T12:10:30.054Z,1.00
2018-04-12T12:11:30.665Z,2.30
2018-04-12T12:12:31.233Z,1.10
2018-04-12T12:13:31.822Z,1.00
2018-04-12T12:14:32.412Z,1.10
2018-04-12T12:15:33.080Z,1.10
2018-04-12T12:16:33.671Z,0.90
2018-04-12T12:18:34.623Z,1.10
2018-04-12T12:19:35.220Z,1.10
2018-04-12T12:20:35.805Z,3.00
2018-04-12T12:21:36.399Z,0.80
2018-04-12T12:22:36.975Z,1.80
2018-04-12T12:24:38.446Z,1.00
2018-04-12T12:25:39.015Z,1.60
2018-04-12T12:26:39.608Z,2.10
2018-04-12T12:27:40.301Z,0.80
2018-04-12T12:28:41.102Z,4.20
2018-04-12T12:29:41.674Z,6.20
2018-04-12T12:30:42.247Z,10.50
2018-04-12T12:31:42.821Z,2.80
2018-04-12T12:32:43.418Z,3.10
2018-04-12T12:33:44.008Z,1.00
2018-04-12T12:34:44.632Z,1.00
2018-04-12T12:35:45.259Z,2.60
2018-04-12T12:36:45.827Z,4.90
2018-04-12T12:37:46.389Z,4.50
2018-04-12T12:38:46.985Z,1.20
2018-04-12T12:39:47.555Z,1.20
2018-04-12T12:40:48.153Z,5.30
2018-04-12T12:42:49.014Z,2.70
2018-04-12T12:43:49.695Z,3.00
2018-04-12T12:45:50.572Z,3.40
2018-04-12T12:47:51.446Z,3.00
2018-04-12T12:48:52.056Z,2.90
2018-04-12T12:49:52.628Z,1.40
2018-04-12T12:50:53.196Z,1.40
2018-04-12T12:51:53.768Z,1.50
2018-04-12T12:52:54.418Z,1.00
2018-04-12T12:53:55.052Z,1.50
2018-04-12T12:54:55.647Z,3.40
2018-04-12T12:55:56.251Z,1.20
2018-04-12T13:20:01.457Z,1.10
2018-04-12T13:21:02.102Z,1.50
2018-04-12T13:22:02.660Z,2.10
2018-04-12T13:23:03.264Z,0.90
2018-04-12T13:24:03.872Z,1.00
2018-04-12T13:25:04.506Z,1.30
2018-04-12T13:27:05.389Z,1.30
2018-04-12T13:28:06.037Z,1.10
2018-04-12T13:29:06.662Z,1.00
2018-04-12T13:30:07.281Z,1.10
2018-04-12T13:32:08.621Z,1.50
2018-04-12T13:33:09.333Z,3.80
2018-04-12T13:52:08.727Z,0.00
2018-04-12T13:53:09.378Z,1.00
2018-04-12T13:54:09.961Z,2.00
2018-04-12T13:55:10.594Z,2.40
2018-04-12T13:56:11.250Z,4.80
2018-04-12T13:57:11.828Z,3.30
2018-04-12T13:58:12.402Z,6.60
2018-04-12T13:59:12.979Z,6.20
2018-04-12T14:00:13.562Z,4.60
2018-04-12T14:01:14.163Z,2.30
2018-04-12T14:02:14.784Z,1.20
2018-04-12T14:03:15.392Z,2.50
2018-04-12T14:04:15.979Z,3.60
2018-04-12T14:05:16.569Z,1.90
2018-04-12T14:16:59.035Z,1.90
2018-04-12T14:18:00.304Z,1.60
2018-04-12T14:19:00.906Z,2.50
2018-04-12T14:20:01.474Z,3.70
2018-04-12T14:21:02.065Z,1.30
2018-04-12T14:22:02.660Z,1.20
2018-04-12T14:23:03.215Z,2.80
2018-04-12T14:25:04.082Z,6.50
2018-04-12T14:45:11.749Z,0.90
2018-04-12T14:46:12.574Z,7.50
2018-04-12T14:47:13.251Z,13.50
2018-04-12T14:48:13.846Z,2.60
2018-04-12T14:59:09.189Z,6.30
2018-04-12T15:00:10.423Z,2.70
2018-04-12T15:02:11.276Z,2.70
2018-04-12T15:11:04.553Z,7.30
2018-04-12T15:12:05.199Z,5.30
2018-04-12T15:13:05.821Z,2.10
2018-04-12T15:21:22.259Z,0.90
2018-04-12T15:22:22.854Z,1.60
2018-04-12T15:23:23.423Z,3.60
2018-04-12T15:34:07.536Z,5.50
2018-04-12T15:35:08.160Z,3.20
2018-04-12T15:44:01.427Z,1.20
2018-04-12T15:50:55.226Z,1.80
2018-04-12T16:00:03.168Z,2.40
